ASA239 KLAS-KSFO
Flight info
| Callsign | ASA239 |
|---|---|
| Flight time | N/A |
| Altitude | 38000 |
| Route | JOHKR5 KENNO RUSME DYAMD5 |
| Aircraft | B738/M-SDE2E3FGHIRWXY/LB1 |
Departure
| Time | 2026-05-06 04:35 |
|---|---|
| Airport | Harry Reid International Airport (KLAS) |
Arrival
| Time | N/A |
|---|---|
| Airport | San Francisco International Airport (KSFO) |
| Time | Latitude | Longitude | Altitude | Speed | Heading |
|---|---|---|---|---|---|
| 2026-05-06 04:10 | 36.08528 | -115.14057 | 2159 ft | 0 kts | 359° |
| 2026-05-06 04:22 | 36.08526 | -115.14057 | 2159 ft | 2 kts | 359° |
| 2026-05-06 04:22 | 36.08500 | -115.14056 | 2189 ft | 4 kts | 359° |
| 2026-05-06 04:22 | 36.08478 | -115.14056 | 2188 ft | 4 kts | 1° |
| 2026-05-06 04:23 | 36.08436 | -115.14068 | 2189 ft | 4 kts | 31° |
| 2026-05-06 04:23 | 36.08419 | -115.14084 | 2187 ft | 1 kts | 45° |
| 2026-05-06 04:23 | 36.08416 | -115.14088 | 2187 ft | 0 kts | 45° |
| 2026-05-06 04:27 | 36.08434 | -115.14065 | 2189 ft | 9 kts | 45° |
| 2026-05-06 04:28 | 36.08465 | -115.13987 | 2190 ft | 10 kts | 83° |
| 2026-05-06 04:28 | 36.08464 | -115.13899 | 2190 ft | 10 kts | 91° |
| 2026-05-06 04:28 | 36.08465 | -115.13813 | 2189 ft | 10 kts | 89° |
| 2026-05-06 04:28 | 36.08465 | -115.13729 | 2187 ft | 10 kts | 89° |
| 2026-05-06 04:29 | 36.08466 | -115.13648 | 2187 ft | 9 kts | 89° |
| 2026-05-06 04:29 | 36.08466 | -115.13568 | 2189 ft | 9 kts | 90° |
| 2026-05-06 04:29 | 36.08465 | -115.13492 | 2190 ft | 9 kts | 93° |
| 2026-05-06 04:29 | 36.08438 | -115.13427 | 2187 ft | 9 kts | 130° |
| 2026-05-06 04:30 | 36.08379 | -115.13351 | 2188 ft | 14 kts | 135° |
| 2026-05-06 04:30 | 36.08295 | -115.13295 | 2187 ft | 14 kts | 174° |
| 2026-05-06 04:30 | 36.08197 | -115.13291 | 2187 ft | 16 kts | 180° |
| 2026-05-06 04:30 | 36.08073 | -115.13292 | 2192 ft | 19 kts | 180° |
| 2026-05-06 04:31 | 36.07963 | -115.13292 | 2189 ft | 14 kts | 179° |
| 2026-05-06 04:31 | 36.07872 | -115.13291 | 2189 ft | 12 kts | 179° |
| 2026-05-06 04:31 | 36.07828 | -115.13231 | 2191 ft | 10 kts | 91° |
| 2026-05-06 04:31 | 36.07828 | -115.13113 | 2191 ft | 19 kts | 90° |
| 2026-05-06 04:32 | 36.07828 | -115.12950 | 2188 ft | 19 kts | 90° |
| 2026-05-06 04:32 | 36.07828 | -115.12792 | 2191 ft | 18 kts | 90° |
| 2026-05-06 04:32 | 36.07829 | -115.12641 | 2187 ft | 17 kts | 89° |
| 2026-05-06 04:32 | 36.07829 | -115.12493 | 2187 ft | 17 kts | 90° |
| 2026-05-06 04:33 | 36.07830 | -115.12351 | 2187 ft | 16 kts | 90° |
| 2026-05-06 04:33 | 36.07815 | -115.12250 | 2189 ft | 10 kts | 121° |
| 2026-05-06 04:33 | 36.07766 | -115.12174 | 2187 ft | 10 kts | 129° |
| 2026-05-06 04:33 | 36.07731 | -115.12135 | 2191 ft | 7 kts | 152° |
| 2026-05-06 04:34 | 36.07666 | -115.12127 | 2191 ft | 10 kts | 182° |
| 2026-05-06 04:34 | 36.07641 | -115.12193 | 2191 ft | 10 kts | 273° |
| 2026-05-06 04:34 | 36.07642 | -115.12437 | 2187 ft | 61 kts | 270° |
| 2026-05-06 04:34 | 36.07641 | -115.13266 | 2191 ft | 129 kts | 270° |
| 2026-05-06 04:35 | 36.07639 | -115.14592 | 2296 ft | 176 kts | 269° |
| 2026-05-06 04:35 | 36.07638 | -115.16040 | 3383 ft | 159 kts | 265° |
| 2026-05-06 04:35 | 36.07636 | -115.17392 | 4277 ft | 159 kts | 269° |
| 2026-05-06 04:35 | 36.07644 | -115.18875 | 4715 ft | 189 kts | 269° |
| 2026-05-06 04:36 | 36.07636 | -115.20618 | 4971 ft | 215 kts | 264° |
| 2026-05-06 04:36 | 36.07411 | -115.22521 | 5339 ft | 231 kts | 257° |
| 2026-05-06 04:36 | 36.06754 | -115.24370 | 5876 ft | 241 kts | 237° |
| 2026-05-06 04:36 | 36.05727 | -115.26012 | 6572 ft | 247 kts | 231° |
| 2026-05-06 04:37 | 36.04275 | -115.27260 | 7114 ft | 265 kts | 202° |
| 2026-05-06 04:37 | 36.02540 | -115.27988 | 7708 ft | 267 kts | 200° |
| 2026-05-06 04:37 | 36.00783 | -115.28739 | 8019 ft | 270 kts | 201° |
| 2026-05-06 04:37 | 35.98994 | -115.29542 | 8028 ft | 276 kts | 204° |
| 2026-05-06 04:38 | 35.97292 | -115.30587 | 8778 ft | 271 kts | 209° |
| 2026-05-06 04:38 | 35.95622 | -115.31710 | 9642 ft | 277 kts | 208° |
| 2026-05-06 04:38 | 35.93904 | -115.32858 | 10424 ft | 281 kts | 208° |
| 2026-05-06 04:38 | 35.92182 | -115.33997 | 10829 ft | 280 kts | 208° |
| 2026-05-06 04:39 | 35.90464 | -115.35167 | 11016 ft | 286 kts | 215° |
| 2026-05-06 04:39 | 35.89126 | -115.36990 | 11035 ft | 292 kts | 241° |
| 2026-05-06 04:39 | 35.88522 | -115.39342 | 11023 ft | 295 kts | 263° |
| 2026-05-06 04:39 | 35.88507 | -115.41875 | 11030 ft | 296 kts | 270° |
| 2026-05-06 04:40 | 35.88585 | -115.44401 | 11024 ft | 294 kts | 271° |
| 2026-05-06 04:40 | 35.88664 | -115.46905 | 11016 ft | 290 kts | 270° |
| 2026-05-06 04:40 | 35.88730 | -115.49385 | 11006 ft | 290 kts | 270° |
| 2026-05-06 04:40 | 35.88786 | -115.51881 | 11020 ft | 292 kts | 269° |
| 2026-05-06 04:41 | 35.88836 | -115.54387 | 11021 ft | 293 kts | 269° |
| 2026-05-06 04:41 | 35.88885 | -115.56906 | 11032 ft | 296 kts | 270° |
| 2026-05-06 04:41 | 35.88934 | -115.59519 | 11177 ft | 317 kts | 270° |
| 2026-05-06 04:41 | 35.88985 | -115.62286 | 11570 ft | 334 kts | 270° |
| 2026-05-06 04:42 | 35.89038 | -115.65195 | 12258 ft | 341 kts | 270° |
| 2026-05-06 04:42 | 35.89093 | -115.68095 | 13302 ft | 338 kts | 270° |
| 2026-05-06 04:42 | 35.89148 | -115.71016 | 14063 ft | 343 kts | 270° |
| 2026-05-06 04:42 | 35.89201 | -115.73983 | 14696 ft | 350 kts | 270° |
| 2026-05-06 04:43 | 35.89255 | -115.77005 | 15357 ft | 354 kts | 270° |
| 2026-05-06 04:43 | 35.89309 | -115.80050 | 16145 ft | 356 kts | 270° |
| 2026-05-06 04:43 | 35.89362 | -115.83119 | 16815 ft | 361 kts | 270° |
| 2026-05-06 04:43 | 35.89416 | -115.86230 | 17498 ft | 365 kts | 269° |
| 2026-05-06 04:44 | 35.89468 | -115.89372 | 18214 ft | 368 kts | 269° |
| 2026-05-06 04:44 | 35.89767 | -115.92517 | 18792 ft | 376 kts | 285° |
| 2026-05-06 04:44 | 35.90863 | -115.95412 | 19367 ft | 383 kts | 303° |